Time;durP1;ratioP1;P1;durP2;ratioP2;P2;SDS_P1;SDS_P2;PMS_P1;PMS_P2;Temp;Humidity;BMP_temperature;BMP_pressure;BME280_temperature;BME280_humidity;BME280_pressure;Samples;Min_cycle;Max_cycle;Signal;HPM_P1;HPM_P2
2020/12/02 00:06:08;;;;;;;8.38;5.30;;;20.30;56.90;;;;;;15690035;28;20142;-61
2020/12/02 00:13:42;;;;;;;7.55;5.13;;;20.30;57.00;;;;;;15689649;28;20033;-61
2020/12/02 00:21:13;;;;;;;7.63;4.55;;;20.30;57.00;;;;;;15689217;28;20113;-61
2020/12/02 00:28:43;;;;;;;10.85;4.50;;;20.30;57.10;;;;;;15688640;28;20364;-61
2020/12/02 00:36:15;;;;;;;7.13;4.43;;;20.20;57.00;;;;;;15688270;28;20075;-61
2020/12/02 00:43:46;;;;;;;7.40;4.20;;;20.30;57.40;;;;;;15688078;28;20961;-61
2020/12/02 00:51:17;;;;;;;7.80;4.50;;;20.30;57.90;;;;;;15669369;28;20056;-61
2020/12/02 00:59:09;;;;;;;7.28;4.20;;;20.30;57.80;;;;;;15686951;28;20439;-61
2020/12/02 01:06:40;;;;;;;6.53;4.05;;;20.30;57.30;;;;;;15686714;28;20037;-61
2020/12/02 01:14:13;;;;;;;8.15;4.35;;;20.30;57.30;;;;;;15686142;28;20107;-61
2020/12/02 01:22:29;;;;;;;7.60;4.55;;;20.30;57.20;;;;;;15685760;28;20483;-61
2020/12/02 01:29:59;;;;;;;8.13;4.63;;;20.30;57.30;;;;;;15685455;28;20437;-61
2020/12/02 01:37:38;;;;;;;6.65;4.50;;;20.30;57.30;;;;;;15669524;28;20028;-61
2020/12/02 01:45:48;;;;;;;6.22;3.97;;;20.20;57.30;;;;;;15685072;28;20025;-61
2020/12/02 01:53:39;;;;;;;5.95;3.92;;;20.20;57.40;;;;;;15481785;28;20142;-61
2020/12/02 02:01:41;;;;;;;6.20;3.60;;;20.20;57.60;;;;;;15693456;28;20082;-61
2020/12/02 02:09:12;;;;;;;6.45;3.70;;;20.20;58.10;;;;;;15696291;28;20037;-61
2020/12/02 02:16:45;;;;;;;5.75;3.55;;;20.20;58.00;;;;;;15697042;28;20021;-61
2020/12/02 02:24:15;;;;;;;5.43;3.40;;;20.20;57.80;;;;;;15696159;28;20029;-61
2020/12/02 04:03:50;;;;;;;3.88;2.67;;;20.10;57.40;;;;;;17625399;22;20049;-65
2020/12/02 04:11:21;;;;;;;4.80;2.87;;;20.20;57.40;;;;;;15753352;28;20112;-66
2020/12/02 04:18:52;;;;;;;4.15;2.63;;;20.20;57.40;;;;;;15754178;28;20526;-65
2020/12/02 04:26:25;;;;;;;5.70;3.40;;;20.20;57.40;;;;;;15752604;28;20099;-65
2020/12/02 04:33:55;;;;;;;6.20;3.17;;;20.20;57.40;;;;;;15752137;28;20470;-65
2020/12/02 04:41:31;;;;;;;4.67;3.17;;;20.10;57.50;;;;;;15751683;28;20398;-66
2020/12/02 04:49:14;;;;;;;6.05;3.05;;;20.10;57.60;;;;;;15751450;28;20033;-65
2020/12/02 04:56:49;;;;;;;4.07;2.42;;;20.10;57.50;;;;;;15751313;28;20017;-65
2020/12/02 05:04:25;;;;;;;4.40;2.83;;;20.10;57.80;;;;;;15749762;28;20127;-65
2020/12/02 05:12:21;;;;;;;5.25;3.38;;;20.10;58.00;;;;;;15749719;28;20029;-65
2020/12/02 05:20:06;;;;;;;4.80;3.10;;;20.20;57.80;;;;;;15749931;28;20410;-65
2020/12/02 05:27:37;;;;;;;5.55;3.45;;;20.20;57.70;;;;;;15749088;28;20524;-66
2020/12/02 05:35:14;;;;;;;4.00;2.45;;;20.20;57.80;;;;;;15748372;28;20078;-65
2020/12/02 05:42:56;;;;;;;4.15;2.47;;;20.20;59.50;;;;;;15749078;28;20039;-65
2020/12/02 05:50:26;;;;;;;6.32;2.80;;;20.30;59.80;;;;;;15749519;28;20075;-65
2020/12/02 05:58:10;;;;;;;4.65;3.30;;;20.30;59.40;;;;;;15730537;28;20486;-65
2020/12/02 06:05:40;;;;;;;4.28;2.90;;;20.30;58.90;;;;;;15748056;28;20040;-65
2020/12/02 06:13:35;;;;;;;4.10;2.83;;;20.30;59.00;;;;;;15730009;28;20039;-65
2020/12/02 06:21:18;;;;;;;4.70;2.75;;;20.30;59.00;;;;;;15747723;28;20516;-66
2020/12/02 06:28:49;;;;;;;4.07;2.50;;;20.30;58.80;;;;;;15747541;28;20051;-66
2020/12/02 06:36:29;;;;;;;5.37;2.97;;;20.30;58.70;;;;;;15747769;28;20027;-65
2020/12/02 06:44:08;;;;;;;3.33;2.38;;;20.30;58.60;;;;;;15749596;28;20450;-66
2020/12/02 06:51:59;;;;;;;5.38;3.00;;;20.30;58.60;;;;;;15740672;28;20035;-65
2020/12/02 06:59:31;;;;;;;3.42;2.30;;;20.30;58.60;;;;;;15758875;28;20082;-65
2020/12/02 07:07:04;;;;;;;5.05;3.08;;;20.30;58.40;;;;;;15757510;28;20457;-66
2020/12/02 07:14:39;;;;;;;5.97;3.78;;;20.30;57.40;;;;;;15757676;28;20032;-70
2020/12/02 07:22:18;;;;;;;4.93;2.22;;;20.30;57.00;;;;;;15757317;28;20024;-65
2020/12/02 07:29:59;;;;;;;5.25;2.17;;;20.30;57.20;;;;;;15756931;28;20025;-65
2020/12/02 07:37:30;;;;;;;6.07;2.05;;;20.30;57.70;;;;;;15755584;28;20025;-65
2020/12/02 07:45:13;;;;;;;2.92;1.80;;;20.20;57.90;;;;;;15754696;28;20444;-66
2020/12/02 07:52:47;;;;;;;2.63;1.50;;;20.20;58.00;;;;;;15755143;28;20099;-65
2020/12/02 08:00:37;;;;;;;7.75;1.73;;;20.20;58.20;;;;;;15762292;28;20024;-65
2020/12/02 08:08:08;;;;;;;4.30;2.70;;;20.20;58.30;;;;;;15754972;28;20063;-66
2020/12/02 08:15:49;;;;;;;14.37;3.77;;;20.20;58.00;;;;;;15752814;28;20029;-65
2020/12/02 08:23:28;;;;;;;5.10;3.10;;;20.20;57.50;;;;;;15754067;28;20032;-65
2020/12/02 08:31:30;;;;;;;7.18;3.72;;;20.20;57.60;;;;;;15753207;28;20035;-65
2020/12/02 08:39:01;;;;;;;7.18;2.97;;;20.20;57.60;;;;;;15751890;28;20025;-65
2020/12/02 08:46:32;;;;;;;6.07;2.93;;;20.20;57.70;;;;;;15751272;28;20482;-66
2020/12/02 08:54:15;;;;;;;5.63;2.92;;;20.20;57.60;;;;;;15751010;28;20859;-65
2020/12/02 09:01:45;;;;;;;5.10;2.95;;;20.20;57.50;;;;;;15750384;28;20047;-65
2020/12/02 09:09:15;;;;;;;5.73;2.23;;;20.20;57.50;;;;;;15749942;28;20024;-65
2020/12/02 09:16:47;;;;;;;6.97;3.10;;;20.20;57.70;;;;;;15750463;28;20450;-65
2020/12/02 09:24:19;;;;;;;11.18;4.55;;;20.10;58.00;;;;;;15750182;28;20032;-73
2020/12/02 09:31:49;;;;;;;9.45;4.70;;;20.10;58.00;;;;;;15750655;28;20025;-73
2020/12/02 09:39:21;;;;;;;6.77;3.43;;;20.20;58.00;;;;;;15749349;28;20463;-73
2020/12/02 09:46:59;;;;;;;9.73;3.78;;;20.20;58.40;;;;;;15748837;28;20036;-73
2020/12/02 09:54:39;;;;;;;10.10;3.67;;;20.20;59.00;;;;;;15748741;28;20104;-73
2020/12/02 10:02:36;;;;;;;5.72;3.45;;;20.20;59.30;;;;;;15762576;22;20048;-60
2020/12/02 10:10:24;;;;;;;5.30;3.28;;;20.10;59.40;;;;;;15747236;28;20020;-60
2020/12/02 10:18:09;;;;;;;5.60;3.25;;;20.10;59.20;;;;;;15747392;28;20029;-60
2020/12/02 10:26:17;;;;;;;3.45;2.15;;;20.20;59.00;;;;;;15758782;28;20031;-60
2020/12/02 10:34:20;;;;;;;4.10;2.88;;;20.20;59.10;;;;;;15739862;28;20046;-60
2020/12/02 10:42:07;;;;;;;6.05;3.22;;;20.20;58.80;;;;;;15757792;28;20021;-58
2020/12/02 10:49:37;;;;;;;3.70;1.98;;;20.20;58.90;;;;;;15757822;28;20489;-57
2020/12/02 10:57:38;;;;;;;20.67;3.30;;;20.20;58.80;;;;;;15756335;28;20112;-59
2020/12/02 11:05:09;;;;;;;6.40;2.67;;;20.30;58.80;;;;;;15739321;28;20048;-58
2020/12/02 11:12:58;;;;;;;6.20;3.10;;;20.30;58.90;;;;;;15737912;28;20051;-58
2020/12/02 11:20:47;;;;;;;5.65;2.70;;;20.30;58.90;;;;;;15737409;28;20504;-59
2020/12/02 11:28:17;;;;;;;6.45;3.20;;;20.30;58.90;;;;;;15755463;28;20028;-58
2020/12/02 11:36:07;;;;;;;6.28;3.53;;;20.30;59.40;;;;;;15754462;28;20035;-57
2020/12/02 11:43:41;;;;;;;6.47;2.97;;;20.30;60.20;;;;;;15754185;28;20379;-59
2020/12/02 11:51:29;;;;;;;4.70;2.97;;;20.40;61.10;;;;;;15753931;28;20546;-57
2020/12/02 11:59:03;;;;;;;5.10;3.17;;;20.50;60.50;;;;;;15754333;28;20401;-58
2020/12/02 12:06:33;;;;;;;6.68;3.03;;;20.50;60.80;;;;;;15754719;28;20074;-59
2020/12/02 12:14:35;;;;;;;5.70;2.80;;;20.50;60.20;;;;;;15762053;28;20052;-59
2020/12/02 12:22:19;;;;;;;5.43;2.90;;;20.50;59.90;;;;;;15755528;28;20028;-59
2020/12/02 12:29:49;;;;;;;4.85;2.55;;;20.60;60.10;;;;;;15750957;28;20513;-59
2020/12/02 12:38:00;;;;;;;6.00;3.50;;;20.50;60.00;;;;;;15750410;28;20024;-59
2020/12/02 12:45:42;;;;;;;3.53;2.08;;;20.50;60.00;;;;;;15750558;28;20451;-59
2020/12/02 12:53:14;;;;;;;7.05;2.90;;;20.50;59.90;;;;;;15731444;28;20032;-58
2020/12/02 13:00:51;;;;;;;5.43;3.08;;;20.50;59.70;;;;;;15731084;28;20139;-58
2020/12/02 13:08:32;;;;;;;16.30;11.20;;;20.60;59.50;;;;;;15748637;28;20431;-64
2020/12/02 13:16:04;;;;;;;12.32;8.27;;;20.30;53.00;;;;;;15730804;28;20028;-64
2020/12/02 13:23:39;;;;;;;9.50;6.78;;;20.30;55.20;;;;;;15748744;28;20024;-65
2020/12/02 13:31:27;;;;;;;7.97;4.90;;;20.40;55.60;;;;;;15748237;28;20117;-64
2020/12/02 13:39:00;;;;;;;8.02;4.88;;;20.50;55.60;;;;;;15747492;28;20035;-65
2020/12/02 13:46:31;;;;;;;7.13;4.60;;;20.50;55.70;;;;;;15729385;28;20534;-64
2020/12/02 13:54:09;;;;;;;5.85;3.85;;;20.60;55.80;;;;;;15746250;28;20029;-64
2020/12/02 14:01:47;;;;;;;5.93;3.63;;;20.60;55.80;;;;;;15747124;28;20032;-58
2020/12/02 14:09:21;;;;;;;5.93;3.92;;;20.60;55.90;;;;;;15746477;28;20043;-58
2020/12/02 14:16:53;;;;;;;5.90;3.90;;;20.60;55.80;;;;;;15746295;28;20497;-58
2020/12/02 14:24:24;;;;;;;5.07;3.38;;;20.60;55.80;;;;;;15746970;28;20501;-58
2020/12/02 14:31:54;;;;;;;6.00;3.10;;;20.60;55.80;;;;;;15746675;28;20076;-58
2020/12/02 14:39:25;;;;;;;7.43;2.80;;;20.60;55.90;;;;;;15746490;28;20028;-58
2020/12/02 14:46:55;;;;;;;5.00;2.87;;;20.60;55.80;;;;;;15746301;28;20036;-58
2020/12/02 14:54:26;;;;;;;4.43;2.60;;;20.60;55.80;;;;;;15744935;28;20044;-58
2020/12/02 15:01:57;;;;;;;20.17;3.92;;;20.60;55.60;;;;;;15744718;28;20028;-58
2020/12/02 15:09:46;;;;;;;7.63;3.20;;;20.60;55.80;;;;;;15754605;28;20021;-58
2020/12/02 15:17:38;;;;;;;5.85;3.22;;;20.60;56.00;;;;;;15755592;28;20016;-58
2020/12/02 15:25:10;;;;;;;5.00;2.90;;;20.60;56.30;;;;;;15763244;28;20088;-58
2020/12/02 15:32:41;;;;;;;5.47;2.80;;;20.60;56.40;;;;;;15758205;28;20099;-59
2020/12/02 15:40:35;;;;;;;4.68;2.78;;;20.60;56.40;;;;;;15755136;28;20048;-59
2020/12/02 15:48:12;;;;;;;6.60;3.15;;;20.70;56.40;;;;;;15735597;28;20058;-60
2020/12/02 15:55:44;;;;;;;7.57;3.90;;;20.60;56.40;;;;;;15735397;28;20025;-57
2020/12/02 16:03:18;;;;;;;10.98;7.32;;;20.50;56.40;;;;;;15735120;28;20506;-58
2020/12/02 16:10:48;;;;;;;14.60;11.10;;;20.50;55.20;;;;;;15752122;28;20033;-58
2020/12/02 16:18:19;;;;;;;11.50;8.57;;;20.30;52.90;;;;;;15751747;28;20450;-58
2020/12/02 16:25:53;;;;;;;10.17;7.53;;;20.30;52.60;;;;;;15752264;28;20439;-59
2020/12/02 16:33:29;;;;;;;10.85;6.70;;;20.30;51.20;;;;;;15750732;28;20024;-58
2020/12/02 16:41:00;;;;;;;9.23;6.78;;;20.50;51.10;;;;;;15732384;28;20110;-57
2020/12/02 16:48:57;;;;;;;11.48;6.70;;;20.60;51.90;;;;;;15750270;28;20032;-57
2020/12/02 16:56:58;;;;;;;8.50;5.70;;;20.80;52.90;;;;;;15718280;28;20044;-57
2020/12/02 17:04:31;;;;;;;7.80;5.35;;;20.80;53.20;;;;;;15749074;28;20029;-57
2020/12/02 17:12:15;;;;;;;14.43;5.68;;;20.80;53.70;;;;;;15748979;28;20056;-57
2020/12/02 17:20:03;;;;;;;7.68;5.53;;;20.70;54.20;;;;;;15730678;28;20032;-57
2020/12/02 17:28:01;;;;;;;9.25;5.45;;;20.70;54.40;;;;;;15747370;28;20032;-57
2020/12/02 17:35:59;;;;;;;6.85;4.70;;;20.70;54.70;;;;;;15748398;28;20024;-57
2020/12/02 17:43:53;;;;;;;5.80;3.92;;;20.70;54.80;;;;;;15747744;28;20079;-57
2020/12/02 17:51:29;;;;;;;5.78;3.60;;;20.70;54.80;;;;;;15747736;28;20537;-57
2020/12/02 17:59:07;;;;;;;4.75;3.00;;;20.70;54.90;;;;;;15746815;28;20020;-57
2020/12/02 18:07:14;;;;;;;6.10;4.03;;;20.70;55.00;;;;;;15729024;28;20036;-57
2020/12/02 18:15:02;;;;;;;5.63;3.80;;;20.70;55.10;;;;;;15746093;28;20087;-57
2020/12/02 18:23:06;;;;;;;5.93;3.80;;;20.70;55.50;;;;;;15745946;28;20031;-57
2020/12/02 18:31:04;;;;;;;5.43;3.65;;;20.70;55.10;;;;;;15746896;28;20368;-57
2020/12/02 18:38:56;;;;;;;4.88;3.53;;;20.80;55.00;;;;;;15750716;28;20104;-57
2020/12/02 18:46:35;;;;;;;4.35;3.00;;;20.80;54.90;;;;;;15757913;28;20024;-58
2020/12/02 18:54:07;;;;;;;7.55;3.90;;;20.90;54.70;;;;;;15756818;28;20036;-62
2020/12/02 19:01:38;;;;;;;4.78;3.03;;;21.00;54.50;;;;;;15756651;28;20085;-58
2020/12/02 19:09:09;;;;;;;7.22;3.60;;;21.00;54.60;;;;;;15755737;28;20032;-58
2020/12/02 19:16:58;;;;;;;4.60;3.00;;;21.00;54.90;;;;;;15755527;28;20024;-55
2020/12/02 19:24:47;;;;;;;6.72;3.40;;;20.90;55.00;;;;;;15755023;28;20028;-57
2020/12/02 19:32:23;;;;;;;6.50;3.10;;;20.90;55.10;;;;;;15755855;28;20025;-58
2020/12/02 19:40:22;;;;;;;7.05;3.20;;;20.80;55.10;;;;;;15755024;28;20482;-58
2020/12/02 19:48:20;;;;;;;5.50;3.00;;;20.80;55.00;;;;;;15713548;28;20040;-58
2020/12/02 19:55:55;;;;;;;5.75;3.47;;;20.80;55.00;;;;;;15752579;28;20021;-58
2020/12/02 20:03:34;;;;;;;6.95;3.38;;;20.80;55.00;;;;;;15753158;28;20457;-58
2020/12/02 20:11:24;;;;;;;5.75;3.50;;;20.90;55.10;;;;;;15753538;28;20037;-58
2020/12/02 20:19:16;;;;;;;4.10;2.78;;;20.90;55.20;;;;;;15752207;28;20021;-58
2020/12/02 20:27:09;;;;;;;5.18;3.00;;;20.90;55.20;;;;;;15751294;28;20024;-58
2020/12/02 20:34:44;;;;;;;4.30;2.80;;;20.90;55.10;;;;;;15750868;28;20111;-57
2020/12/02 20:42:16;;;;;;;7.03;3.00;;;21.00;55.60;;;;;;15750341;28;20064;-59
2020/12/02 20:50:07;;;;;;;7.20;3.22;;;21.10;55.80;;;;;;15750657;28;20028;-59
2020/12/02 20:57:49;;;;;;;4.57;2.78;;;21.00;55.50;;;;;;15749698;28;20517;-58
2020/12/02 21:05:26;;;;;;;5.95;2.63;;;21.00;55.60;;;;;;15748627;28;20037;-58
2020/12/02 21:12:57;;;;;;;5.40;2.35;;;21.00;55.80;;;;;;15749050;28;20474;-57
2020/12/02 21:20:53;;;;;;;4.13;2.90;;;20.90;56.40;;;;;;15749382;28;20054;-57
2020/12/02 21:28:50;;;;;;;6.35;2.75;;;20.90;56.10;;;;;;15748139;28;20032;-57
2020/12/02 21:36:32;;;;;;;4.57;2.88;;;20.80;56.00;;;;;;15748279;28;20033;-57
2020/12/02 21:44:49;;;;;;;4.55;2.70;;;20.80;56.00;;;;;;15747713;28;20060;-57
2020/12/02 21:52:26;;;;;;;4.70;2.63;;;20.80;56.10;;;;;;15752456;28;20131;-57
2020/12/02 22:00:10;;;;;;;5.55;2.80;;;20.70;56.20;;;;;;15732819;28;20029;-57
2020/12/02 22:07:57;;;;;;;4.50;2.92;;;20.70;56.10;;;;;;15746853;28;20032;-56
2020/12/02 22:16:01;;;;;;;5.30;2.97;;;20.60;56.10;;;;;;15750991;28;20067;-56
2020/12/02 22:24:13;;;;;;;4.80;3.03;;;20.60;56.20;;;;;;15759645;28;20368;-58
2020/12/02 22:32:12;;;;;;;5.90;3.20;;;20.50;56.30;;;;;;15721275;28;20047;-57
2020/12/02 22:39:55;;;;;;;5.70;3.72;;;20.50;56.30;;;;;;15758867;28;20024;-56
2020/12/02 22:47:44;;;;;;;5.85;3.65;;;20.40;56.40;;;;;;15757631;28;20024;-57
2020/12/02 22:55:22;;;;;;;4.07;2.55;;;20.30;56.40;;;;;;15781125;22;20135;-65
2020/12/02 23:02:59;;;;;;;4.10;2.42;;;20.30;57.10;;;;;;15758345;28;20031;-65
2020/12/02 23:10:33;;;;;;;5.32;3.15;;;20.30;57.20;;;;;;15757740;28;20033;-72
2020/12/02 23:18:25;;;;;;;6.07;3.40;;;20.30;56.80;;;;;;15756714;28;20020;-72
2020/12/02 23:25:56;;;;;;;4.38;2.75;;;20.40;56.80;;;;;;15755641;28;20028;-72
2020/12/02 23:33:45;;;;;;;5.85;2.55;;;20.30;56.80;;;;;;15756132;28;20031;-72
2020/12/02 23:41:19;;;;;;;5.53;2.80;;;20.30;56.70;;;;;;15756010;28;20047;-72
2020/12/02 23:49:06;;;;;;;5.70;2.70;;;20.30;56.70;;;;;;15755137;28;20035;-72
2020/12/02 23:56:36;;;;;;;5.75;2.80;;;20.30;56.80;;;;;;15755630;28;20127;-72
